sensor_id;sensor_type;location;lat;lon;timestamp;P1;durP1;ratioP1;P2;durP2;ratioP2
67074;SDS011;53990;50.334;18.640;2022-09-09T00:04:32;15.30;;;12.00;;
67074;SDS011;53990;50.334;18.640;2022-09-09T00:12:48;15.10;;;13.50;;
67074;SDS011;53990;50.334;18.640;2022-09-09T00:15:23;16.20;;;14.00;;
67074;SDS011;53990;50.334;18.640;2022-09-09T00:18:08;17.60;;;13.60;;
67074;SDS011;53990;50.334;18.640;2022-09-09T00:21:06;16.40;;;14.50;;
67074;SDS011;53990;50.334;18.640;2022-09-09T00:23:40;16.50;;;13.60;;
67074;SDS011;53990;50.334;18.640;2022-09-09T00:26:36;16.70;;;13.90;;
67074;SDS011;53990;50.334;18.640;2022-09-09T00:31:37;18.00;;;15.10;;
67074;SDS011;53990;50.334;18.640;2022-09-09T00:34:12;17.00;;;14.10;;
67074;SDS011;53990;50.334;18.640;2022-09-09T00:36:41;19.60;;;14.40;;
67074;SDS011;53990;50.334;18.640;2022-09-09T00:39:20;17.70;;;15.00;;
67074;SDS011;53990;50.334;18.640;2022-09-09T00:42:03;23.70;;;14.90;;
67074;SDS011;53990;50.334;18.640;2022-09-09T00:45:35;15.70;;;14.00;;
67074;SDS011;53990;50.334;18.640;2022-09-09T00:47:39;16.20;;;14.50;;
67074;SDS011;53990;50.334;18.640;2022-09-09T00:53:10;18.60;;;14.10;;
67074;SDS011;53990;50.334;18.640;2022-09-09T00:56:20;16.70;;;14.40;;
67074;SDS011;53990;50.334;18.640;2022-09-09T00:58:42;17.20;;;14.50;;
67074;SDS011;53990;50.334;18.640;2022-09-09T01:01:12;22.30;;;15.50;;
67074;SDS011;53990;50.334;18.640;2022-09-09T01:03:53;18.90;;;14.30;;
67074;SDS011;53990;50.334;18.640;2022-09-09T01:06:31;19.90;;;15.90;;
67074;SDS011;53990;50.334;18.640;2022-09-09T01:14:29;43.30;;;16.20;;
67074;SDS011;53990;50.334;18.640;2022-09-09T01:17:03;32.40;;;16.20;;
67074;SDS011;53990;50.334;18.640;2022-09-09T01:27:36;55.10;;;15.20;;
67074;SDS011;53990;50.334;18.640;2022-09-09T01:30:11;41.00;;;13.60;;
67074;SDS011;53990;50.334;18.640;2022-09-09T01:35:15;40.70;;;14.30;;
67074;SDS011;53990;50.334;18.640;2022-09-09T01:37:44;27.20;;;14.00;;
67074;SDS011;53990;50.334;18.640;2022-09-09T01:40:12;21.20;;;13.30;;
67074;SDS011;53990;50.334;18.640;2022-09-09T01:42:39;18.50;;;13.60;;
67074;SDS011;53990;50.334;18.640;2022-09-09T01:45:06;31.30;;;13.90;;
67074;SDS011;53990;50.334;18.640;2022-09-09T01:47:35;25.90;;;13.40;;
67074;SDS011;53990;50.334;18.640;2022-09-09T01:50:02;46.70;;;13.30;;
67074;SDS011;53990;50.334;18.640;2022-09-09T01:52:31;47.20;;;12.80;;
67074;SDS011;53990;50.334;18.640;2022-09-09T01:55:00;35.70;;;13.70;;
67074;SDS011;53990;50.334;18.640;2022-09-09T01:57:33;25.40;;;13.40;;
67074;SDS011;53990;50.334;18.640;2022-09-09T02:00:08;24.40;;;13.90;;
67074;SDS011;53990;50.334;18.640;2022-09-09T02:08:23;36.30;;;13.80;;
67074;SDS011;53990;50.334;18.640;2022-09-09T02:13:32;64.40;;;14.20;;
67074;SDS011;53990;50.334;18.640;2022-09-09T02:16:08;25.60;;;13.00;;
67074;SDS011;53990;50.334;18.640;2022-09-09T02:21:04;23.50;;;13.00;;
67074;SDS011;53990;50.334;18.640;2022-09-09T02:23:34;24.40;;;12.80;;
67074;SDS011;53990;50.334;18.640;2022-09-09T02:26:02;14.90;;;13.00;;
67074;SDS011;53990;50.334;18.640;2022-09-09T02:28:32;16.60;;;12.10;;
67074;SDS011;53990;50.334;18.640;2022-09-09T02:31:00;18.90;;;11.40;;
67074;SDS011;53990;50.334;18.640;2022-09-09T02:33:32;22.50;;;12.30;;
67074;SDS011;53990;50.334;18.640;2022-09-09T02:36:02;13.20;;;11.70;;
67074;SDS011;53990;50.334;18.640;2022-09-09T02:38:33;17.60;;;13.80;;
67074;SDS011;53990;50.334;18.640;2022-09-09T02:41:02;17.40;;;13.20;;
67074;SDS011;53990;50.334;18.640;2022-09-09T02:43:33;14.00;;;12.30;;
67074;SDS011;53990;50.334;18.640;2022-09-09T02:46:08;14.50;;;13.00;;
67074;SDS011;53990;50.334;18.640;2022-09-09T02:48:51;14.90;;;12.00;;
67074;SDS011;53990;50.334;18.640;2022-09-09T02:51:42;14.70;;;12.20;;
67074;SDS011;53990;50.334;18.640;2022-09-09T02:54:31;16.30;;;12.50;;
67074;SDS011;53990;50.334;18.640;2022-09-09T02:57:23;13.90;;;11.80;;
67074;SDS011;53990;50.334;18.640;2022-09-09T02:59:50;13.50;;;12.10;;
67074;SDS011;53990;50.334;18.640;2022-09-09T03:02:19;14.00;;;12.50;;
67074;SDS011;53990;50.334;18.640;2022-09-09T03:04:46;13.10;;;11.70;;
67074;SDS011;53990;50.334;18.640;2022-09-09T03:07:20;14.10;;;11.80;;
67074;SDS011;53990;50.334;18.640;2022-09-09T03:09:48;14.20;;;12.80;;
67074;SDS011;53990;50.334;18.640;2022-09-09T03:12:15;16.80;;;12.70;;
67074;SDS011;53990;50.334;18.640;2022-09-09T03:14:43;14.30;;;11.90;;
67074;SDS011;53990;50.334;18.640;2022-09-09T03:17:12;13.90;;;12.50;;
67074;SDS011;53990;50.334;18.640;2022-09-09T03:19:39;14.40;;;12.50;;
67074;SDS011;53990;50.334;18.640;2022-09-09T03:22:11;16.20;;;13.50;;
67074;SDS011;53990;50.334;18.640;2022-09-09T03:24:40;12.60;;;11.30;;
67074;SDS011;53990;50.334;18.640;2022-09-09T03:27:07;13.20;;;11.70;;
67074;SDS011;53990;50.334;18.640;2022-09-09T03:29:34;14.70;;;12.10;;
67074;SDS011;53990;50.334;18.640;2022-09-09T03:32:02;14.30;;;11.60;;
67074;SDS011;53990;50.334;18.640;2022-09-09T03:34:29;13.70;;;12.00;;
67074;SDS011;53990;50.334;18.640;2022-09-09T03:36:56;15.80;;;12.10;;
67074;SDS011;53990;50.334;18.640;2022-09-09T03:39:23;15.20;;;12.10;;
67074;SDS011;53990;50.334;18.640;2022-09-09T03:41:50;18.00;;;13.00;;
67074;SDS011;53990;50.334;18.640;2022-09-09T03:44:18;16.50;;;13.70;;
67074;SDS011;53990;50.334;18.640;2022-09-09T03:46:45;16.90;;;12.70;;
67074;SDS011;53990;50.334;18.640;2022-09-09T03:49:12;15.00;;;13.40;;
67074;SDS011;53990;50.334;18.640;2022-09-09T03:51:39;17.90;;;12.60;;
67074;SDS011;53990;50.334;18.640;2022-09-09T03:54:07;14.30;;;12.00;;
67074;SDS011;53990;50.334;18.640;2022-09-09T03:56:36;13.70;;;12.20;;
67074;SDS011;53990;50.334;18.640;2022-09-09T03:59:04;14.50;;;12.00;;
67074;SDS011;53990;50.334;18.640;2022-09-09T04:01:31;14.30;;;11.80;;
67074;SDS011;53990;50.334;18.640;2022-09-09T04:03:58;15.90;;;12.00;;
67074;SDS011;53990;50.334;18.640;2022-09-09T04:06:25;20.40;;;16.40;;
67074;SDS011;53990;50.334;18.640;2022-09-09T04:08:53;15.00;;;13.10;;
67074;SDS011;53990;50.334;18.640;2022-09-09T04:11:20;18.00;;;12.70;;
67074;SDS011;53990;50.334;18.640;2022-09-09T04:13:50;13.50;;;11.60;;
67074;SDS011;53990;50.334;18.640;2022-09-09T04:16:17;15.50;;;12.70;;
67074;SDS011;53990;50.334;18.640;2022-09-09T04:18:44;46.20;;;32.30;;
67074;SDS011;53990;50.334;18.640;2022-09-09T04:21:11;16.40;;;13.00;;
67074;SDS011;53990;50.334;18.640;2022-09-09T04:23:39;14.10;;;11.90;;
67074;SDS011;53990;50.334;18.640;2022-09-09T04:26:07;15.10;;;12.30;;
67074;SDS011;53990;50.334;18.640;2022-09-09T04:28:36;15.70;;;12.50;;
67074;SDS011;53990;50.334;18.640;2022-09-09T04:31:09;14.50;;;12.70;;
67074;SDS011;53990;50.334;18.640;2022-09-09T04:33:38;16.40;;;11.40;;
67074;SDS011;53990;50.334;18.640;2022-09-09T04:36:07;13.50;;;11.90;;
67074;SDS011;53990;50.334;18.640;2022-09-09T04:38:35;13.80;;;11.50;;
67074;SDS011;53990;50.334;18.640;2022-09-09T04:41:02;13.20;;;11.80;;
67074;SDS011;53990;50.334;18.640;2022-09-09T04:43:29;15.00;;;12.20;;
67074;SDS011;53990;50.334;18.640;2022-09-09T04:45:57;14.50;;;11.30;;
67074;SDS011;53990;50.334;18.640;2022-09-09T04:48:26;12.70;;;11.30;;
67074;SDS011;53990;50.334;18.640;2022-09-09T04:50:59;14.10;;;12.40;;
67074;SDS011;53990;50.334;18.640;2022-09-09T04:53:26;17.90;;;13.00;;
67074;SDS011;53990;50.334;18.640;2022-09-09T04:56:04;19.10;;;14.00;;
67074;SDS011;53990;50.334;18.640;2022-09-09T04:58:32;15.70;;;12.10;;
67074;SDS011;53990;50.334;18.640;2022-09-09T05:01:19;13.20;;;11.50;;
67074;SDS011;53990;50.334;18.640;2022-09-09T05:03:48;13.20;;;11.80;;
67074;SDS011;53990;50.334;18.640;2022-09-09T05:06:17;12.70;;;11.50;;
67074;SDS011;53990;50.334;18.640;2022-09-09T05:08:45;18.20;;;13.10;;
67074;SDS011;53990;50.334;18.640;2022-09-09T05:13:47;17.60;;;13.60;;
67074;SDS011;53990;50.334;18.640;2022-09-09T05:16:14;24.20;;;16.90;;
67074;SDS011;53990;50.334;18.640;2022-09-09T05:18:42;17.80;;;12.50;;
67074;SDS011;53990;50.334;18.640;2022-09-09T05:21:11;16.10;;;12.80;;
67074;SDS011;53990;50.334;18.640;2022-09-09T05:23:39;16.80;;;13.90;;
67074;SDS011;53990;50.334;18.640;2022-09-09T05:26:08;16.20;;;13.80;;
67074;SDS011;53990;50.334;18.640;2022-09-09T05:28:36;14.20;;;11.60;;
67074;SDS011;53990;50.334;18.640;2022-09-09T05:31:05;13.80;;;12.40;;
67074;SDS011;53990;50.334;18.640;2022-09-09T05:33:35;12.80;;;10.90;;
67074;SDS011;53990;50.334;18.640;2022-09-09T05:36:05;16.60;;;12.10;;
67074;SDS011;53990;50.334;18.640;2022-09-09T05:38:34;12.80;;;11.30;;
67074;SDS011;53990;50.334;18.640;2022-09-09T05:41:03;15.50;;;11.70;;
67074;SDS011;53990;50.334;18.640;2022-09-09T05:43:30;13.10;;;11.80;;
67074;SDS011;53990;50.334;18.640;2022-09-09T05:46:05;13.90;;;12.40;;
67074;SDS011;53990;50.334;18.640;2022-09-09T05:48:34;14.60;;;12.50;;
67074;SDS011;53990;50.334;18.640;2022-09-09T05:51:02;16.40;;;12.70;;
67074;SDS011;53990;50.334;18.640;2022-09-09T05:53:34;13.20;;;11.80;;
67074;SDS011;53990;50.334;18.640;2022-09-09T05:56:04;21.10;;;15.80;;
67074;SDS011;53990;50.334;18.640;2022-09-09T05:58:32;21.30;;;17.70;;
67074;SDS011;53990;50.334;18.640;2022-09-09T06:01:04;13.10;;;11.80;;
67074;SDS011;53990;50.334;18.640;2022-09-09T06:03:31;15.80;;;11.80;;
67074;SDS011;53990;50.334;18.640;2022-09-09T06:06:08;13.00;;;11.60;;
67074;SDS011;53990;50.334;18.640;2022-09-09T06:08:38;11.90;;;10.70;;
67074;SDS011;53990;50.334;18.640;2022-09-09T06:11:08;13.20;;;11.50;;
67074;SDS011;53990;50.334;18.640;2022-09-09T06:13:36;13.00;;;11.60;;
67074;SDS011;53990;50.334;18.640;2022-09-09T06:16:08;13.30;;;11.90;;
67074;SDS011;53990;50.334;18.640;2022-09-09T06:18:36;12.00;;;10.50;;
67074;SDS011;53990;50.334;18.640;2022-09-09T06:21:05;12.40;;;11.00;;
67074;SDS011;53990;50.334;18.640;2022-09-09T06:23:34;11.50;;;10.30;;
67074;SDS011;53990;50.334;18.640;2022-09-09T06:26:11;13.00;;;11.30;;
67074;SDS011;53990;50.334;18.640;2022-09-09T06:28:38;12.00;;;10.80;;
67074;SDS011;53990;50.334;18.640;2022-09-09T06:31:07;13.20;;;10.90;;
67074;SDS011;53990;50.334;18.640;2022-09-09T06:33:37;11.60;;;10.40;;
67074;SDS011;53990;50.334;18.640;2022-09-09T06:36:10;12.80;;;11.50;;
67074;SDS011;53990;50.334;18.640;2022-09-09T06:38:38;9.30;;;8.30;;
67074;SDS011;53990;50.334;18.640;2022-09-09T06:41:06;11.20;;;8.50;;
67074;SDS011;53990;50.334;18.640;2022-09-09T06:43:33;10.20;;;7.80;;
67074;SDS011;53990;50.334;18.640;2022-09-09T06:49:00;8.60;;;6.80;;
67074;SDS011;53990;50.334;18.640;2022-09-09T06:51:33;8.80;;;7.50;;
67074;SDS011;53990;50.334;18.640;2022-09-09T06:54:02;11.50;;;7.30;;
67074;SDS011;53990;50.334;18.640;2022-09-09T06:56:34;7.80;;;6.60;;
67074;SDS011;53990;50.334;18.640;2022-09-09T06:59:04;7.00;;;6.30;;
67074;SDS011;53990;50.334;18.640;2022-09-09T07:01:36;8.90;;;6.90;;
67074;SDS011;53990;50.334;18.640;2022-09-09T07:04:04;10.40;;;8.90;;
67074;SDS011;53990;50.334;18.640;2022-09-09T07:06:36;10.40;;;8.70;;
67074;SDS011;53990;50.334;18.640;2022-09-09T07:09:08;11.40;;;9.30;;
67074;SDS011;53990;50.334;18.640;2022-09-09T07:11:41;11.70;;;8.10;;
67074;SDS011;53990;50.334;18.640;2022-09-09T07:14:09;11.20;;;7.70;;
67074;SDS011;53990;50.334;18.640;2022-09-09T07:16:39;11.00;;;8.30;;
67074;SDS011;53990;50.334;18.640;2022-09-09T07:19:07;9.30;;;7.60;;
67074;SDS011;53990;50.334;18.640;2022-09-09T07:21:35;8.50;;;7.40;;
67074;SDS011;53990;50.334;18.640;2022-09-09T07:24:02;8.90;;;7.00;;
67074;SDS011;53990;50.334;18.640;2022-09-09T07:26:30;10.00;;;7.30;;
67074;SDS011;53990;50.334;18.640;2022-09-09T07:28:57;11.00;;;8.30;;
67074;SDS011;53990;50.334;18.640;2022-09-09T07:31:30;10.30;;;6.80;;
67074;SDS011;53990;50.334;18.640;2022-09-09T07:33:59;8.60;;;6.40;;
67074;SDS011;53990;50.334;18.640;2022-09-09T07:36:29;9.10;;;6.90;;
67074;SDS011;53990;50.334;18.640;2022-09-09T07:39:10;8.50;;;6.60;;
67074;SDS011;53990;50.334;18.640;2022-09-09T07:41:41;7.40;;;6.30;;
67074;SDS011;53990;50.334;18.640;2022-09-09T07:44:11;8.40;;;6.50;;
67074;SDS011;53990;50.334;18.640;2022-09-09T07:46:39;8.70;;;6.60;;
67074;SDS011;53990;50.334;18.640;2022-09-09T07:49:07;6.90;;;6.10;;
67074;SDS011;53990;50.334;18.640;2022-09-09T07:51:46;7.30;;;5.90;;
67074;SDS011;53990;50.334;18.640;2022-09-09T07:54:16;5.80;;;4.70;;
67074;SDS011;53990;50.334;18.640;2022-09-09T07:56:47;8.80;;;5.30;;
67074;SDS011;53990;50.334;18.640;2022-09-09T07:59:14;7.00;;;5.80;;
67074;SDS011;53990;50.334;18.640;2022-09-09T08:01:46;6.60;;;5.20;;
67074;SDS011;53990;50.334;18.640;2022-09-09T08:04:16;6.60;;;4.70;;
67074;SDS011;53990;50.334;18.640;2022-09-09T08:06:56;6.80;;;5.20;;
67074;SDS011;53990;50.334;18.640;2022-09-09T08:09:24;5.80;;;4.70;;
67074;SDS011;53990;50.334;18.640;2022-09-09T08:11:55;5.80;;;4.10;;
67074;SDS011;53990;50.334;18.640;2022-09-09T08:14:24;4.90;;;4.30;;
67074;SDS011;53990;50.334;18.640;2022-09-09T08:16:51;5.70;;;4.30;;
67074;SDS011;53990;50.334;18.640;2022-09-09T08:19:20;14.00;;;10.30;;
67074;SDS011;53990;50.334;18.640;2022-09-09T08:21:47;7.80;;;6.00;;
67074;SDS011;53990;50.334;18.640;2022-09-09T08:24:16;6.50;;;4.70;;
67074;SDS011;53990;50.334;18.640;2022-09-09T08:26:46;4.90;;;4.10;;
67074;SDS011;53990;50.334;18.640;2022-09-09T08:29:14;5.40;;;4.30;;
67074;SDS011;53990;50.334;18.640;2022-09-09T08:31:44;5.30;;;4.50;;
67074;SDS011;53990;50.334;18.640;2022-09-09T08:34:12;5.60;;;4.70;;
67074;SDS011;53990;50.334;18.640;2022-09-09T08:36:43;8.20;;;4.70;;
67074;SDS011;53990;50.334;18.640;2022-09-09T08:39:13;8.80;;;5.40;;
67074;SDS011;53990;50.334;18.640;2022-09-09T08:55:53;5.20;;;4.40;;
67074;SDS011;53990;50.334;18.640;2022-09-09T08:58:25;5.60;;;4.10;;
67074;SDS011;53990;50.334;18.640;2022-09-09T09:12:44;5.60;;;3.80;;
67074;SDS011;53990;50.334;18.640;2022-09-09T09:15:19;4.50;;;3.70;;
67074;SDS011;53990;50.334;18.640;2022-09-09T09:17:47;4.70;;;3.30;;
67074;SDS011;53990;50.334;18.640;2022-09-09T09:20:16;5.60;;;3.60;;
67074;SDS011;53990;50.334;18.640;2022-09-09T09:22:55;4.80;;;3.60;;
67074;SDS011;53990;50.334;18.640;2022-09-09T09:25:31;5.20;;;3.90;;
67074;SDS011;53990;50.334;18.640;2022-09-09T09:28:15;6.10;;;4.10;;
67074;SDS011;53990;50.334;18.640;2022-09-09T09:36:08;4.70;;;3.80;;
67074;SDS011;53990;50.334;18.640;2022-09-09T09:38:36;6.00;;;3.70;;
67074;SDS011;53990;50.334;18.640;2022-09-09T09:41:04;4.50;;;3.10;;
67074;SDS011;53990;50.334;18.640;2022-09-09T09:43:33;6.90;;;3.70;;
67074;SDS011;53990;50.334;18.640;2022-09-09T09:46:03;4.70;;;3.00;;
67074;SDS011;53990;50.334;18.640;2022-09-09T09:48:31;4.40;;;3.20;;
67074;SDS011;53990;50.334;18.640;2022-09-09T09:51:05;4.50;;;3.00;;
67074;SDS011;53990;50.334;18.640;2022-09-09T09:53:36;3.80;;;2.60;;
67074;SDS011;53990;50.334;18.640;2022-09-09T09:56:06;3.00;;;2.40;;
67074;SDS011;53990;50.334;18.640;2022-09-09T10:01:17;5.60;;;3.20;;
67074;SDS011;53990;50.334;18.640;2022-09-09T10:03:54;4.90;;;3.10;;
67074;SDS011;53990;50.334;18.640;2022-09-09T10:06:36;3.60;;;2.50;;
67074;SDS011;53990;50.334;18.640;2022-09-09T10:09:27;4.70;;;2.60;;
67074;SDS011;53990;50.334;18.640;2022-09-09T10:20:54;4.80;;;3.20;;
67074;SDS011;53990;50.334;18.640;2022-09-09T10:23:52;6.10;;;4.80;;
67074;SDS011;53990;50.334;18.640;2022-09-09T10:27:10;3.40;;;2.90;;
67074;SDS011;53990;50.334;18.640;2022-09-09T10:32:28;4.90;;;3.00;;
67074;SDS011;53990;50.334;18.640;2022-09-09T10:40:31;3.80;;;2.30;;
67074;SDS011;53990;50.334;18.640;2022-09-09T10:57:05;2.50;;;1.80;;
67074;SDS011;53990;50.334;18.640;2022-09-09T10:59:46;2.50;;;1.70;;
67074;SDS011;53990;50.334;18.640;2022-09-09T11:02:28;4.10;;;2.20;;
67074;SDS011;53990;50.334;18.640;2022-09-09T11:07:46;3.00;;;2.10;;
67074;SDS011;53990;50.334;18.640;2022-09-09T11:10:22;3.90;;;2.00;;
67074;SDS011;53990;50.334;18.640;2022-09-09T11:12:59;2.30;;;1.70;;
67074;SDS011;53990;50.334;18.640;2022-09-09T11:15:36;3.50;;;1.80;;
67074;SDS011;53990;50.334;18.640;2022-09-09T11:18:10;2.00;;;1.50;;
67074;SDS011;53990;50.334;18.640;2022-09-09T11:20:38;2.90;;;1.70;;
67074;SDS011;53990;50.334;18.640;2022-09-09T11:23:16;3.20;;;1.90;;
67074;SDS011;53990;50.334;18.640;2022-09-09T11:25:55;3.30;;;1.80;;
67074;SDS011;53990;50.334;18.640;2022-09-09T11:28:40;2.00;;;1.60;;
67074;SDS011;53990;50.334;18.640;2022-09-09T11:34:36;3.50;;;1.80;;
67074;SDS011;53990;50.334;18.640;2022-09-09T11:40:25;3.40;;;1.80;;
67074;SDS011;53990;50.334;18.640;2022-09-09T11:43:18;3.50;;;1.40;;
67074;SDS011;53990;50.334;18.640;2022-09-09T11:45:55;2.00;;;1.40;;
67074;SDS011;53990;50.334;18.640;2022-09-09T11:48:36;2.30;;;1.50;;
67074;SDS011;53990;50.334;18.640;2022-09-09T11:56:44;3.00;;;1.60;;
67074;SDS011;53990;50.334;18.640;2022-09-09T11:59:29;2.80;;;1.30;;
67074;SDS011;53990;50.334;18.640;2022-09-09T12:07:41;3.70;;;1.70;;
67074;SDS011;53990;50.334;18.640;2022-09-09T12:10:23;3.40;;;1.80;;
67074;SDS011;53990;50.334;18.640;2022-09-09T12:12:53;3.30;;;2.00;;
67074;SDS011;53990;50.334;18.640;2022-09-09T12:15:28;2.70;;;1.80;;
67074;SDS011;53990;50.334;18.640;2022-09-09T12:17:57;3.30;;;1.70;;
67074;SDS011;53990;50.334;18.640;2022-09-09T12:20:38;1.80;;;1.10;;
67074;SDS011;53990;50.334;18.640;2022-09-09T12:23:25;1.90;;;1.20;;
67074;SDS011;53990;50.334;18.640;2022-09-09T12:34:11;2.10;;;1.30;;
67074;SDS011;53990;50.334;18.640;2022-09-09T12:36:41;2.40;;;1.20;;
67074;SDS011;53990;50.334;18.640;2022-09-09T12:39:22;2.20;;;1.00;;
67074;SDS011;53990;50.334;18.640;2022-09-09T12:41:53;2.60;;;1.30;;
67074;SDS011;53990;50.334;18.640;2022-09-09T12:44:25;2.30;;;1.30;;
67074;SDS011;53990;50.334;18.640;2022-09-09T12:46:59;2.60;;;1.10;;
67074;SDS011;53990;50.334;18.640;2022-09-09T12:51:58;1.80;;;1.00;;
67074;SDS011;53990;50.334;18.640;2022-09-09T12:54:25;1.20;;;0.90;;
67074;SDS011;53990;50.334;18.640;2022-09-09T12:56:52;4.90;;;3.20;;
67074;SDS011;53990;50.334;18.640;2022-09-09T12:59:35;3.00;;;1.10;;
67074;SDS011;53990;50.334;18.640;2022-09-09T13:02:16;1.90;;;1.10;;
67074;SDS011;53990;50.334;18.640;2022-09-09T13:04:44;3.60;;;1.40;;
67074;SDS011;53990;50.334;18.640;2022-09-09T13:07:13;2.80;;;1.20;;
67074;SDS011;53990;50.334;18.640;2022-09-09T13:09:44;1.70;;;1.30;;
67074;SDS011;53990;50.334;18.640;2022-09-09T13:12:18;2.00;;;1.30;;
67074;SDS011;53990;50.334;18.640;2022-09-09T13:17:21;1.90;;;1.00;;
67074;SDS011;53990;50.334;18.640;2022-09-09T13:19:49;3.10;;;1.10;;
67074;SDS011;53990;50.334;18.640;2022-09-09T13:22:36;2.30;;;1.10;;
67074;SDS011;53990;50.334;18.640;2022-09-09T13:27:40;2.60;;;1.00;;
67074;SDS011;53990;50.334;18.640;2022-09-09T13:30:31;2.80;;;0.90;;
67074;SDS011;53990;50.334;18.640;2022-09-09T13:35:56;1.60;;;0.90;;
67074;SDS011;53990;50.334;18.640;2022-09-09T13:38:24;2.40;;;1.00;;
67074;SDS011;53990;50.334;18.640;2022-09-09T13:41:00;1.50;;;0.90;;
67074;SDS011;53990;50.334;18.640;2022-09-09T13:43:37;1.90;;;0.90;;
67074;SDS011;53990;50.334;18.640;2022-09-09T13:46:39;2.40;;;1.20;;
67074;SDS011;53990;50.334;18.640;2022-09-09T13:51:39;1.90;;;1.10;;
67074;SDS011;53990;50.334;18.640;2022-09-09T13:54:10;1.60;;;1.30;;
67074;SDS011;53990;50.334;18.640;2022-09-09T13:56:39;1.90;;;1.30;;
67074;SDS011;53990;50.334;18.640;2022-09-09T13:59:11;2.70;;;1.50;;
67074;SDS011;53990;50.334;18.640;2022-09-09T14:01:39;2.50;;;1.30;;
67074;SDS011;53990;50.334;18.640;2022-09-09T14:04:06;2.00;;;1.30;;
67074;SDS011;53990;50.334;18.640;2022-09-09T14:06:37;2.30;;;1.40;;
67074;SDS011;53990;50.334;18.640;2022-09-09T14:09:13;4.00;;;1.40;;
67074;SDS011;53990;50.334;18.640;2022-09-09T14:11:43;2.00;;;1.30;;
67074;SDS011;53990;50.334;18.640;2022-09-09T14:14:10;1.90;;;1.20;;
67074;SDS011;53990;50.334;18.640;2022-09-09T14:16:38;2.20;;;1.50;;
67074;SDS011;53990;50.334;18.640;2022-09-09T14:19:05;4.20;;;2.00;;
67074;SDS011;53990;50.334;18.640;2022-09-09T14:21:32;4.80;;;2.10;;
67074;SDS011;53990;50.334;18.640;2022-09-09T14:23:59;3.00;;;1.60;;
67074;SDS011;53990;50.334;18.640;2022-09-09T14:26:27;2.40;;;1.30;;
67074;SDS011;53990;50.334;18.640;2022-09-09T14:28:56;4.40;;;1.60;;
67074;SDS011;53990;50.334;18.640;2022-09-09T14:31:24;4.60;;;2.80;;
67074;SDS011;53990;50.334;18.640;2022-09-09T14:33:52;7.70;;;3.70;;
67074;SDS011;53990;50.334;18.640;2022-09-09T14:36:20;2.80;;;1.80;;
67074;SDS011;53990;50.334;18.640;2022-09-09T14:38:47;2.90;;;1.70;;
67074;SDS011;53990;50.334;18.640;2022-09-09T14:41:16;2.90;;;1.40;;
67074;SDS011;53990;50.334;18.640;2022-09-09T14:43:45;6.00;;;2.30;;
67074;SDS011;53990;50.334;18.640;2022-09-09T14:46:15;2.40;;;1.50;;
67074;SDS011;53990;50.334;18.640;2022-09-09T14:48:43;2.40;;;1.40;;
67074;SDS011;53990;50.334;18.640;2022-09-09T14:51:16;3.30;;;1.50;;
67074;SDS011;53990;50.334;18.640;2022-09-09T14:53:43;4.10;;;1.30;;
67074;SDS011;53990;50.334;18.640;2022-09-09T14:56:15;2.60;;;1.70;;
67074;SDS011;53990;50.334;18.640;2022-09-09T14:58:43;2.80;;;1.30;;
67074;SDS011;53990;50.334;18.640;2022-09-09T15:01:13;2.90;;;1.70;;
67074;SDS011;53990;50.334;18.640;2022-09-09T15:03:42;2.80;;;1.60;;
67074;SDS011;53990;50.334;18.640;2022-09-09T15:06:12;3.00;;;1.50;;
67074;SDS011;53990;50.334;18.640;2022-09-09T15:08:44;3.10;;;1.40;;
67074;SDS011;53990;50.334;18.640;2022-09-09T15:11:14;4.00;;;1.60;;
67074;SDS011;53990;50.334;18.640;2022-09-09T15:13:43;2.80;;;1.40;;
67074;SDS011;53990;50.334;18.640;2022-09-09T15:18:42;3.30;;;1.60;;
67074;SDS011;53990;50.334;18.640;2022-09-09T15:21:14;2.10;;;1.50;;
67074;SDS011;53990;50.334;18.640;2022-09-09T15:23:42;3.00;;;1.60;;
67074;SDS011;53990;50.334;18.640;2022-09-09T15:26:10;3.90;;;1.70;;
67074;SDS011;53990;50.334;18.640;2022-09-09T15:28:37;3.20;;;1.70;;
67074;SDS011;53990;50.334;18.640;2022-09-09T15:31:13;2.70;;;1.60;;
67074;SDS011;53990;50.334;18.640;2022-09-09T15:33:49;5.20;;;1.90;;
67074;SDS011;53990;50.334;18.640;2022-09-09T15:36:19;4.20;;;1.80;;
67074;SDS011;53990;50.334;18.640;2022-09-09T15:38:46;2.20;;;1.50;;
67074;SDS011;53990;50.334;18.640;2022-09-09T15:41:14;3.70;;;2.00;;
67074;SDS011;53990;50.334;18.640;2022-09-09T15:43:50;4.50;;;1.70;;
67074;SDS011;53990;50.334;18.640;2022-09-09T15:51:30;4.10;;;1.70;;
67074;SDS011;53990;50.334;18.640;2022-09-09T15:53:58;4.80;;;2.60;;
67074;SDS011;53990;50.334;18.640;2022-09-09T15:56:27;6.30;;;4.90;;
67074;SDS011;53990;50.334;18.640;2022-09-09T15:58:56;5.40;;;3.20;;
67074;SDS011;53990;50.334;18.640;2022-09-09T16:01:25;3.90;;;2.10;;
67074;SDS011;53990;50.334;18.640;2022-09-09T16:03:52;3.60;;;2.40;;
67074;SDS011;53990;50.334;18.640;2022-09-09T16:06:21;5.10;;;2.50;;
67074;SDS011;53990;50.334;18.640;2022-09-09T16:08:51;14.30;;;10.50;;
67074;SDS011;53990;50.334;18.640;2022-09-09T16:11:22;12.30;;;6.40;;
67074;SDS011;53990;50.334;18.640;2022-09-09T16:13:51;13.30;;;6.50;;
67074;SDS011;53990;50.334;18.640;2022-09-09T16:16:22;15.70;;;10.50;;
67074;SDS011;53990;50.334;18.640;2022-09-09T16:18:53;14.10;;;7.50;;
67074;SDS011;53990;50.334;18.640;2022-09-09T16:23:52;12.60;;;6.00;;
67074;SDS011;53990;50.334;18.640;2022-09-09T16:26:25;23.00;;;8.70;;
67074;SDS011;53990;50.334;18.640;2022-09-09T16:28:55;21.60;;;8.00;;
67074;SDS011;53990;50.334;18.640;2022-09-09T16:31:25;24.40;;;6.40;;
67074;SDS011;53990;50.334;18.640;2022-09-09T16:33:54;26.10;;;5.30;;
67074;SDS011;53990;50.334;18.640;2022-09-09T16:36:23;14.50;;;5.60;;
67074;SDS011;53990;50.334;18.640;2022-09-09T16:38:55;6.50;;;4.70;;
67074;SDS011;53990;50.334;18.640;2022-09-09T16:41:26;7.40;;;4.00;;
67074;SDS011;53990;50.334;18.640;2022-09-09T16:43:56;7.80;;;5.10;;
67074;SDS011;53990;50.334;18.640;2022-09-09T16:46:26;8.10;;;4.70;;
67074;SDS011;53990;50.334;18.640;2022-09-09T16:48:59;7.10;;;4.60;;
67074;SDS011;53990;50.334;18.640;2022-09-09T16:51:32;6.80;;;4.20;;
67074;SDS011;53990;50.334;18.640;2022-09-09T16:54:02;7.90;;;4.70;;
67074;SDS011;53990;50.334;18.640;2022-09-09T16:56:32;8.00;;;4.80;;
67074;SDS011;53990;50.334;18.640;2022-09-09T16:59:06;12.20;;;5.20;;
67074;SDS011;53990;50.334;18.640;2022-09-09T17:01:35;8.30;;;4.90;;
67074;SDS011;53990;50.334;18.640;2022-09-09T17:04:12;11.80;;;7.10;;
67074;SDS011;53990;50.334;18.640;2022-09-09T17:06:40;10.30;;;6.10;;
67074;SDS011;53990;50.334;18.640;2022-09-09T17:09:10;5.20;;;3.50;;
67074;SDS011;53990;50.334;18.640;2022-09-09T17:11:38;7.80;;;3.20;;
67074;SDS011;53990;50.334;18.640;2022-09-09T17:14:08;7.30;;;4.60;;
67074;SDS011;53990;50.334;18.640;2022-09-09T17:16:36;6.40;;;4.60;;
67074;SDS011;53990;50.334;18.640;2022-09-09T17:19:06;6.80;;;4.80;;
67074;SDS011;53990;50.334;18.640;2022-09-09T17:21:36;6.90;;;4.80;;
67074;SDS011;53990;50.334;18.640;2022-09-09T17:24:04;7.50;;;4.10;;
67074;SDS011;53990;50.334;18.640;2022-09-09T17:26:32;7.10;;;5.00;;
67074;SDS011;53990;50.334;18.640;2022-09-09T17:29:02;10.20;;;7.50;;
67074;SDS011;53990;50.334;18.640;2022-09-09T17:31:30;12.90;;;7.70;;
67074;SDS011;53990;50.334;18.640;2022-09-09T17:33:59;10.10;;;7.80;;